sensor_id;sensor_type;location;lat;lon;timestamp;P1;durP1;ratioP1;P2;durP2;ratioP2
66619;SDS011;53484;51.356;6.732;2022-10-01T04:20:20;10.25;;;6.70;;
66619;SDS011;53484;51.356;6.732;2022-10-01T04:22:46;11.68;;;8.05;;
66619;SDS011;53484;51.356;6.732;2022-10-01T04:25:13;13.43;;;7.20;;
66619;SDS011;53484;51.356;6.732;2022-10-01T04:27:39;9.93;;;6.93;;
66619;SDS011;53484;51.356;6.732;2022-10-01T04:30:06;12.48;;;7.20;;
66619;SDS011;53484;51.356;6.732;2022-10-01T04:32:33;9.60;;;6.00;;
66619;SDS011;53484;51.356;6.732;2022-10-01T04:34:59;10.88;;;7.95;;
66619;SDS011;53484;51.356;6.732;2022-10-01T04:37:32;10.77;;;6.33;;
66619;SDS011;53484;51.356;6.732;2022-10-01T04:39:58;10.80;;;6.80;;
66619;SDS011;53484;51.356;6.732;2022-10-01T04:42:25;9.88;;;6.28;;
66619;SDS011;53484;51.356;6.732;2022-10-01T04:44:51;10.57;;;6.18;;
66619;SDS011;53484;51.356;6.732;2022-10-01T04:47:17;8.85;;;5.85;;
66619;SDS011;53484;51.356;6.732;2022-10-01T04:49:44;10.00;;;6.17;;
66619;SDS011;53484;51.356;6.732;2022-10-01T04:52:10;10.93;;;6.57;;
66619;SDS011;53484;51.356;6.732;2022-10-01T04:54:37;11.32;;;5.82;;
66619;SDS011;53484;51.356;6.732;2022-10-01T04:57:04;9.20;;;5.43;;
66619;SDS011;53484;51.356;6.732;2022-10-01T04:59:30;8.70;;;4.85;;
66619;SDS011;53484;51.356;6.732;2022-10-01T05:01:56;9.23;;;4.80;;
66619;SDS011;53484;51.356;6.732;2022-10-01T05:04:23;8.50;;;4.20;;
66619;SDS011;53484;51.356;6.732;2022-10-01T05:06:50;5.78;;;3.40;;
66619;SDS011;53484;51.356;6.732;2022-10-01T05:09:16;5.72;;;2.97;;
66619;SDS011;53484;51.356;6.732;2022-10-01T05:11:44;5.57;;;3.42;;
66619;SDS011;53484;51.356;6.732;2022-10-01T05:14:10;6.37;;;3.63;;
66619;SDS011;53484;51.356;6.732;2022-10-01T05:16:38;6.20;;;3.63;;
66619;SDS011;53484;51.356;6.732;2022-10-01T05:19:04;6.20;;;3.58;;
66619;SDS011;53484;51.356;6.732;2022-10-01T05:21:31;8.13;;;2.83;;
66619;SDS011;53484;51.356;6.732;2022-10-01T05:23:58;4.72;;;2.42;;
66619;SDS011;53484;51.356;6.732;2022-10-01T05:26:24;5.53;;;2.83;;
66619;SDS011;53484;51.356;6.732;2022-10-01T05:28:52;5.05;;;2.08;;
66619;SDS011;53484;51.356;6.732;2022-10-01T05:31:19;6.28;;;2.00;;
66619;SDS011;53484;51.356;6.732;2022-10-01T05:33:45;4.18;;;1.70;;
66619;SDS011;53484;51.356;6.732;2022-10-01T05:36:11;4.93;;;2.00;;
66619;SDS011;53484;51.356;6.732;2022-10-01T05:38:37;3.03;;;1.40;;
66619;SDS011;53484;51.356;6.732;2022-10-01T05:41:04;4.55;;;1.23;;
66619;SDS011;53484;51.356;6.732;2022-10-01T05:43:30;2.35;;;0.85;;
66619;SDS011;53484;51.356;6.732;2022-10-01T05:45:59;3.72;;;1.20;;
66619;SDS011;53484;51.356;6.732;2022-10-01T05:48:26;2.20;;;0.85;;
66619;SDS011;53484;51.356;6.732;2022-10-01T05:50:53;1.80;;;0.70;;
66619;SDS011;53484;51.356;6.732;2022-10-01T05:53:20;2.67;;;0.80;;
66619;SDS011;53484;51.356;6.732;2022-10-01T05:55:47;1.60;;;0.60;;
66619;SDS011;53484;51.356;6.732;2022-10-01T05:58:13;1.92;;;0.75;;
66619;SDS011;53484;51.356;6.732;2022-10-01T06:00:40;1.80;;;0.50;;
66619;SDS011;53484;51.356;6.732;2022-10-01T06:03:08;2.33;;;0.60;;
66619;SDS011;53484;51.356;6.732;2022-10-01T06:05:36;2.05;;;0.70;;
66619;SDS011;53484;51.356;6.732;2022-10-01T06:08:03;2.35;;;0.60;;
66619;SDS011;53484;51.356;6.732;2022-10-01T06:10:30;2.78;;;0.70;;
66619;SDS011;53484;51.356;6.732;2022-10-01T06:12:57;2.92;;;0.75;;
66619;SDS011;53484;51.356;6.732;2022-10-01T06:15:24;2.50;;;1.20;;
66619;SDS011;53484;51.356;6.732;2022-10-01T06:17:50;2.10;;;1.00;;
66619;SDS011;53484;51.356;6.732;2022-10-01T06:20:18;2.90;;;0.60;;
66619;SDS011;53484;51.356;6.732;2022-10-01T06:22:51;1.70;;;0.60;;
66619;SDS011;53484;51.356;6.732;2022-10-01T06:25:18;3.13;;;0.73;;
66619;SDS011;53484;51.356;6.732;2022-10-01T06:27:49;2.00;;;0.80;;
66619;SDS011;53484;51.356;6.732;2022-10-01T06:30:16;2.88;;;0.80;;
66619;SDS011;53484;51.356;6.732;2022-10-01T06:32:42;2.28;;;0.90;;
66619;SDS011;53484;51.356;6.732;2022-10-01T06:35:08;2.50;;;1.08;;
66619;SDS011;53484;51.356;6.732;2022-10-01T06:37:36;3.00;;;1.25;;
66619;SDS011;53484;51.356;6.732;2022-10-01T06:40:03;2.67;;;1.10;;
66619;SDS011;53484;51.356;6.732;2022-10-01T06:42:30;1.90;;;0.77;;
66619;SDS011;53484;51.356;6.732;2022-10-01T06:44:56;2.30;;;1.00;;
66619;SDS011;53484;51.356;6.732;2022-10-01T06:47:22;3.80;;;1.20;;
66619;SDS011;53484;51.356;6.732;2022-10-01T06:49:49;3.00;;;0.93;;
66619;SDS011;53484;51.356;6.732;2022-10-01T06:52:15;2.17;;;0.87;;
66619;SDS011;53484;51.356;6.732;2022-10-01T06:55:00;2.25;;;0.57;;
66619;SDS011;53484;51.356;6.732;2022-10-01T06:57:27;4.88;;;0.80;;
66619;SDS011;53484;51.356;6.732;2022-10-01T06:59:53;2.55;;;1.10;;
66619;SDS011;53484;51.356;6.732;2022-10-01T07:02:20;2.97;;;1.17;;
66619;SDS011;53484;51.356;6.732;2022-10-01T07:04:47;2.50;;;0.83;;
66619;SDS011;53484;51.356;6.732;2022-10-01T07:07:13;1.73;;;0.70;;
66619;SDS011;53484;51.356;6.732;2022-10-01T07:09:40;2.42;;;0.88;;
66619;SDS011;53484;51.356;6.732;2022-10-01T07:12:07;1.73;;;0.70;;
66619;SDS011;53484;51.356;6.732;2022-10-01T07:14:34;2.95;;;0.90;;
66619;SDS011;53484;51.356;6.732;2022-10-01T07:17:02;2.53;;;0.60;;
66619;SDS011;53484;51.356;6.732;2022-10-01T07:19:28;2.78;;;0.80;;
66619;SDS011;53484;51.356;6.732;2022-10-01T07:21:57;3.72;;;0.85;;
66619;SDS011;53484;51.356;6.732;2022-10-01T07:24:23;2.70;;;0.88;;
66619;SDS011;53484;51.356;6.732;2022-10-01T07:26:49;4.45;;;0.80;;
66619;SDS011;53484;51.356;6.732;2022-10-01T07:29:21;3.63;;;1.00;;
66619;SDS011;53484;51.356;6.732;2022-10-01T07:31:48;3.05;;;0.80;;
66619;SDS011;53484;51.356;6.732;2022-10-01T07:34:14;3.45;;;0.90;;
66619;SDS011;53484;51.356;6.732;2022-10-01T07:36:40;3.22;;;0.90;;
66619;SDS011;53484;51.356;6.732;2022-10-01T07:39:09;3.65;;;1.17;;
66619;SDS011;53484;51.356;6.732;2022-10-01T07:41:36;2.63;;;0.93;;
66619;SDS011;53484;51.356;6.732;2022-10-01T07:44:02;2.47;;;0.95;;
66619;SDS011;53484;51.356;6.732;2022-10-01T07:46:30;3.25;;;0.65;;
66619;SDS011;53484;51.356;6.732;2022-10-01T07:48:56;2.70;;;0.95;;
66619;SDS011;53484;51.356;6.732;2022-10-01T07:51:23;2.10;;;0.80;;
66619;SDS011;53484;51.356;6.732;2022-10-01T07:53:50;2.30;;;0.80;;
66619;SDS011;53484;51.356;6.732;2022-10-01T07:56:17;3.22;;;1.00;;
66619;SDS011;53484;51.356;6.732;2022-10-01T07:58:43;4.18;;;1.00;;
66619;SDS011;53484;51.356;6.732;2022-10-01T08:01:10;2.38;;;0.63;;
66619;SDS011;53484;51.356;6.732;2022-10-01T08:03:38;2.55;;;1.00;;
66619;SDS011;53484;51.356;6.732;2022-10-01T08:06:04;3.13;;;0.90;;
66619;SDS011;53484;51.356;6.732;2022-10-01T08:08:31;3.58;;;1.23;;
66619;SDS011;53484;51.356;6.732;2022-10-01T08:11:00;4.38;;;1.17;;
66619;SDS011;53484;51.356;6.732;2022-10-01T08:13:27;2.60;;;1.10;;
66619;SDS011;53484;51.356;6.732;2022-10-01T08:15:53;3.25;;;0.98;;
66619;SDS011;53484;51.356;6.732;2022-10-01T08:18:20;2.50;;;0.93;;
66619;SDS011;53484;51.356;6.732;2022-10-01T08:20:47;2.95;;;1.25;;
66619;SDS011;53484;51.356;6.732;2022-10-01T08:23:15;3.33;;;1.20;;
66619;SDS011;53484;51.356;6.732;2022-10-01T08:25:43;4.13;;;1.30;;
66619;SDS011;53484;51.356;6.732;2022-10-01T08:28:10;2.22;;;1.05;;
66619;SDS011;53484;51.356;6.732;2022-10-01T08:30:37;6.73;;;1.20;;
66619;SDS011;53484;51.356;6.732;2022-10-01T08:33:04;2.70;;;1.13;;
66619;SDS011;53484;51.356;6.732;2022-10-01T08:35:31;5.35;;;1.30;;
66619;SDS011;53484;51.356;6.732;2022-10-01T08:38:01;4.97;;;1.00;;
66619;SDS011;53484;51.356;6.732;2022-10-01T08:40:28;4.22;;;1.33;;
66619;SDS011;53484;51.356;6.732;2022-10-01T08:42:55;3.30;;;1.30;;
66619;SDS011;53484;51.356;6.732;2022-10-01T08:45:24;3.08;;;1.17;;
66619;SDS011;53484;51.356;6.732;2022-10-01T08:47:53;3.80;;;1.42;;
66619;SDS011;53484;51.356;6.732;2022-10-01T08:50:25;6.25;;;1.67;;
66619;SDS011;53484;51.356;6.732;2022-10-01T08:52:54;4.05;;;1.63;;
66619;SDS011;53484;51.356;6.732;2022-10-01T08:55:25;4.20;;;1.73;;
66619;SDS011;53484;51.356;6.732;2022-10-01T08:57:52;4.70;;;1.50;;
66619;SDS011;53484;51.356;6.732;2022-10-01T09:00:20;8.95;;;1.90;;
66619;SDS011;53484;51.356;6.732;2022-10-01T09:02:46;4.15;;;1.60;;
66619;SDS011;53484;51.356;6.732;2022-10-01T09:05:16;3.47;;;1.40;;
66619;SDS011;53484;51.356;6.732;2022-10-01T09:07:48;7.30;;;1.60;;
66619;SDS011;53484;51.356;6.732;2022-10-01T09:10:21;5.68;;;1.80;;
66619;SDS011;53484;51.356;6.732;2022-10-01T09:12:53;6.32;;;1.80;;
66619;SDS011;53484;51.356;6.732;2022-10-01T09:15:29;7.10;;;1.95;;
66619;SDS011;53484;51.356;6.732;2022-10-01T09:17:59;5.10;;;1.50;;
66619;SDS011;53484;51.356;6.732;2022-10-01T09:20:30;6.20;;;1.90;;
66619;SDS011;53484;51.356;6.732;2022-10-01T09:23:03;6.63;;;1.95;;
66619;SDS011;53484;51.356;6.732;2022-10-01T09:25:36;6.72;;;2.15;;
66619;SDS011;53484;51.356;6.732;2022-10-01T09:28:10;4.40;;;1.92;;
66619;SDS011;53484;51.356;6.732;2022-10-01T09:30:38;5.35;;;2.10;;
66619;SDS011;53484;51.356;6.732;2022-10-01T09:33:09;6.53;;;2.30;;
66619;SDS011;53484;51.356;6.732;2022-10-01T09:35:39;4.45;;;2.00;;
66619;SDS011;53484;51.356;6.732;2022-10-01T09:38:08;6.57;;;2.70;;
66619;SDS011;53484;51.356;6.732;2022-10-01T09:40:37;5.75;;;2.70;;
66619;SDS011;53484;51.356;6.732;2022-10-01T09:43:08;6.85;;;2.70;;
66619;SDS011;53484;51.356;6.732;2022-10-01T09:45:35;6.40;;;2.40;;
66619;SDS011;53484;51.356;6.732;2022-10-01T09:48:02;8.50;;;2.83;;
66619;SDS011;53484;51.356;6.732;2022-10-01T09:50:33;5.22;;;2.63;;
66619;SDS011;53484;51.356;6.732;2022-10-01T09:53:00;5.78;;;2.28;;
66619;SDS011;53484;51.356;6.732;2022-10-01T09:55:29;5.93;;;2.67;;
66619;SDS011;53484;51.356;6.732;2022-10-01T09:57:56;6.23;;;2.30;;
66619;SDS011;53484;51.356;6.732;2022-10-01T10:00:26;5.93;;;2.60;;
66619;SDS011;53484;51.356;6.732;2022-10-01T10:02:53;6.47;;;2.42;;
66619;SDS011;53484;51.356;6.732;2022-10-01T10:05:20;10.13;;;2.85;;
66619;SDS011;53484;51.356;6.732;2022-10-01T10:07:48;5.78;;;2.40;;
66619;SDS011;53484;51.356;6.732;2022-10-01T10:10:16;5.30;;;2.47;;
66619;SDS011;53484;51.356;6.732;2022-10-01T10:12:44;8.05;;;2.00;;
66619;SDS011;53484;51.356;6.732;2022-10-01T10:15:12;6.88;;;2.38;;
66619;SDS011;53484;51.356;6.732;2022-10-01T10:17:43;7.65;;;2.33;;
66619;SDS011;53484;51.356;6.732;2022-10-01T10:20:11;5.40;;;2.47;;
66619;SDS011;53484;51.356;6.732;2022-10-01T10:22:43;9.20;;;2.00;;
66619;SDS011;53484;51.356;6.732;2022-10-01T10:25:11;4.88;;;2.00;;
66619;SDS011;53484;51.356;6.732;2022-10-01T10:27:49;7.50;;;1.70;;
66619;SDS011;53484;51.356;6.732;2022-10-01T10:30:16;4.57;;;1.77;;
66619;SDS011;53484;51.356;6.732;2022-10-01T10:32:44;5.50;;;2.08;;
66619;SDS011;53484;51.356;6.732;2022-10-01T10:35:12;7.97;;;2.20;;
66619;SDS011;53484;51.356;6.732;2022-10-01T10:37:43;7.53;;;2.03;;
66619;SDS011;53484;51.356;6.732;2022-10-01T10:40:14;7.32;;;2.20;;
66619;SDS011;53484;51.356;6.732;2022-10-01T10:42:45;8.57;;;2.85;;
66619;SDS011;53484;51.356;6.732;2022-10-01T10:45:13;7.32;;;2.47;;
66619;SDS011;53484;51.356;6.732;2022-10-01T10:47:44;6.93;;;2.50;;
66619;SDS011;53484;51.356;6.732;2022-10-01T10:50:12;7.25;;;2.80;;
66619;SDS011;53484;51.356;6.732;2022-10-01T10:52:46;8.02;;;3.20;;
66619;SDS011;53484;51.356;6.732;2022-10-01T10:55:18;11.68;;;3.58;;
66619;SDS011;53484;51.356;6.732;2022-10-01T10:57:45;8.55;;;2.80;;
66619;SDS011;53484;51.356;6.732;2022-10-01T11:00:12;12.47;;;3.83;;
66619;SDS011;53484;51.356;6.732;2022-10-01T11:02:40;10.27;;;2.90;;
66619;SDS011;53484;51.356;6.732;2022-10-01T11:05:16;11.55;;;2.75;;
66619;SDS011;53484;51.356;6.732;2022-10-01T11:07:43;11.43;;;3.10;;
66619;SDS011;53484;51.356;6.732;2022-10-01T11:10:14;11.07;;;3.38;;
66619;SDS011;53484;51.356;6.732;2022-10-01T11:12:49;11.70;;;2.87;;
66619;SDS011;53484;51.356;6.732;2022-10-01T11:15:24;8.65;;;3.90;;
66619;SDS011;53484;51.356;6.732;2022-10-01T11:18:08;7.50;;;3.10;;
66619;SDS011;53484;51.356;6.732;2022-10-01T11:20:39;7.90;;;2.58;;
66619;SDS011;53484;51.356;6.732;2022-10-01T11:23:15;9.32;;;2.90;;
66619;SDS011;53484;51.356;6.732;2022-10-01T11:25:47;11.10;;;2.73;;
66619;SDS011;53484;51.356;6.732;2022-10-01T11:28:20;9.45;;;3.20;;
66619;SDS011;53484;51.356;6.732;2022-10-01T11:30:52;11.38;;;3.10;;
66619;SDS011;53484;51.356;6.732;2022-10-01T11:33:21;12.82;;;3.78;;
66619;SDS011;53484;51.356;6.732;2022-10-01T11:35:54;9.68;;;3.50;;
66619;SDS011;53484;51.356;6.732;2022-10-01T11:38:30;11.93;;;3.17;;
66619;SDS011;53484;51.356;6.732;2022-10-01T11:41:03;6.07;;;2.38;;
66619;SDS011;53484;51.356;6.732;2022-10-01T11:43:35;7.95;;;2.85;;
66619;SDS011;53484;51.356;6.732;2022-10-01T11:46:04;8.00;;;2.42;;
66619;SDS011;53484;51.356;6.732;2022-10-01T11:48:32;11.50;;;2.75;;
66619;SDS011;53484;51.356;6.732;2022-10-01T11:51:03;12.33;;;3.23;;
66619;SDS011;53484;51.356;6.732;2022-10-01T11:53:32;14.50;;;2.50;;
66619;SDS011;53484;51.356;6.732;2022-10-01T11:55:59;9.82;;;2.92;;
66619;SDS011;53484;51.356;6.732;2022-10-01T11:58:45;9.32;;;2.15;;
66619;SDS011;53484;51.356;6.732;2022-10-01T12:01:18;8.85;;;2.03;;
66619;SDS011;53484;51.356;6.732;2022-10-01T12:03:53;11.45;;;2.10;;
66619;SDS011;53484;51.356;6.732;2022-10-01T12:06:25;7.57;;;2.58;;
66619;SDS011;53484;51.356;6.732;2022-10-01T12:08:54;10.10;;;2.47;;
66619;SDS011;53484;51.356;6.732;2022-10-01T12:11:24;11.68;;;1.98;;
66619;SDS011;53484;51.356;6.732;2022-10-01T12:13:55;13.20;;;2.28;;
66619;SDS011;53484;51.356;6.732;2022-10-01T12:16:26;8.63;;;1.97;;
66619;SDS011;53484;51.356;6.732;2022-10-01T12:18:54;10.52;;;2.40;;
66619;SDS011;53484;51.356;6.732;2022-10-01T12:21:23;8.80;;;1.80;;
66619;SDS011;53484;51.356;6.732;2022-10-01T12:23:57;10.27;;;2.25;;
66619;SDS011;53484;51.356;6.732;2022-10-01T12:26:27;8.38;;;1.70;;
66619;SDS011;53484;51.356;6.732;2022-10-01T12:29:00;7.47;;;2.20;;
66619;SDS011;53484;51.356;6.732;2022-10-01T12:31:32;10.73;;;1.95;;
66619;SDS011;53484;51.356;6.732;2022-10-01T12:34:06;13.20;;;2.88;;
66619;SDS011;53484;51.356;6.732;2022-10-01T12:36:37;8.18;;;2.35;;
66619;SDS011;53484;51.356;6.732;2022-10-01T12:39:16;9.50;;;2.30;;
66619;SDS011;53484;51.356;6.732;2022-10-01T12:41:48;8.15;;;2.33;;
66619;SDS011;53484;51.356;6.732;2022-10-01T12:44:30;10.15;;;2.42;;
66619;SDS011;53484;51.356;6.732;2022-10-01T12:47:04;10.35;;;2.13;;
66619;SDS011;53484;51.356;6.732;2022-10-01T12:49:34;10.27;;;2.65;;
66619;SDS011;53484;51.356;6.732;2022-10-01T12:52:03;10.07;;;1.88;;
66619;SDS011;53484;51.356;6.732;2022-10-01T12:54:39;9.10;;;2.00;;
66619;SDS011;53484;51.356;6.732;2022-10-01T12:57:11;6.53;;;2.15;;
66619;SDS011;53484;51.356;6.732;2022-10-01T12:59:41;9.80;;;2.70;;
66619;SDS011;53484;51.356;6.732;2022-10-01T13:02:22;10.48;;;2.75;;
66619;SDS011;53484;51.356;6.732;2022-10-01T13:04:58;7.40;;;2.25;;
66619;SDS011;53484;51.356;6.732;2022-10-01T13:07:39;10.57;;;2.33;;
66619;SDS011;53484;51.356;6.732;2022-10-01T13:10:15;8.43;;;2.50;;
66619;SDS011;53484;51.356;6.732;2022-10-01T13:12:47;10.02;;;2.20;;
66619;SDS011;53484;51.356;6.732;2022-10-01T13:15:21;11.45;;;2.20;;
66619;SDS011;53484;51.356;6.732;2022-10-01T13:17:48;9.40;;;1.77;;
66619;SDS011;53484;51.356;6.732;2022-10-01T13:20:19;9.38;;;2.28;;
66619;SDS011;53484;51.356;6.732;2022-10-01T13:22:49;13.20;;;2.80;;
66619;SDS011;53484;51.356;6.732;2022-10-01T13:25:23;9.48;;;2.17;;
66619;SDS011;53484;51.356;6.732;2022-10-01T13:27:53;11.70;;;2.53;;
66619;SDS011;53484;51.356;6.732;2022-10-01T13:30:21;9.10;;;1.92;;
66619;SDS011;53484;51.356;6.732;2022-10-01T13:32:49;15.07;;;1.85;;
66619;SDS011;53484;51.356;6.732;2022-10-01T13:35:21;27.10;;;5.13;;
66619;SDS011;53484;51.356;6.732;2022-10-01T13:37:48;18.67;;;6.70;;
66619;SDS011;53484;51.356;6.732;2022-10-01T13:40:20;9.20;;;2.00;;
66619;SDS011;53484;51.356;6.732;2022-10-01T13:42:48;9.27;;;1.73;;
66619;SDS011;53484;51.356;6.732;2022-10-01T13:45:20;6.10;;;1.50;;
66619;SDS011;53484;51.356;6.732;2022-10-01T13:47:47;7.22;;;1.20;;
66619;SDS011;53484;51.356;6.732;2022-10-01T13:50:17;9.13;;;1.80;;
66619;SDS011;53484;51.356;6.732;2022-10-01T13:52:45;6.60;;;0.70;;
66619;SDS011;53484;51.356;6.732;2022-10-01T13:55:20;11.77;;;1.83;;
66619;SDS011;53484;51.356;6.732;2022-10-01T13:57:50;7.77;;;1.20;;
66619;SDS011;53484;51.356;6.732;2022-10-01T14:00:26;12.07;;;1.92;;
66619;SDS011;53484;51.356;6.732;2022-10-01T14:03:00;10.93;;;1.60;;
66619;SDS011;53484;51.356;6.732;2022-10-01T14:05:29;7.63;;;1.48;;
66619;SDS011;53484;51.356;6.732;2022-10-01T14:08:02;12.65;;;1.48;;
66619;SDS011;53484;51.356;6.732;2022-10-01T14:10:38;7.93;;;1.50;;
66619;SDS011;53484;51.356;6.732;2022-10-01T14:13:26;10.02;;;1.38;;
66619;SDS011;53484;51.356;6.732;2022-10-01T14:16:11;9.15;;;1.30;;
66619;SDS011;53484;51.356;6.732;2022-10-01T14:18:38;7.53;;;1.38;;
66619;SDS011;53484;51.356;6.732;2022-10-01T14:21:08;8.77;;;2.17;;
66619;SDS011;53484;51.356;6.732;2022-10-01T14:23:38;11.30;;;1.57;;
66619;SDS011;53484;51.356;6.732;2022-10-01T14:26:09;10.18;;;1.20;;
66619;SDS011;53484;51.356;6.732;2022-10-01T14:28:46;10.43;;;2.17;;
66619;SDS011;53484;51.356;6.732;2022-10-01T14:31:16;9.48;;;1.55;;
66619;SDS011;53484;51.356;6.732;2022-10-01T14:36:26;12.07;;;1.70;;
66619;SDS011;53484;51.356;6.732;2022-10-01T14:39:03;9.75;;;1.80;;
66619;SDS011;53484;51.356;6.732;2022-10-01T14:41:32;13.65;;;1.70;;
66619;SDS011;53484;51.356;6.732;2022-10-01T14:44:00;12.25;;;2.20;;
66619;SDS011;53484;51.356;6.732;2022-10-01T14:46:26;10.65;;;1.95;;
66619;SDS011;53484;51.356;6.732;2022-10-01T14:48:55;12.30;;;1.73;;
66619;SDS011;53484;51.356;6.732;2022-10-01T14:51:22;12.43;;;1.80;;
66619;SDS011;53484;51.356;6.732;2022-10-01T14:53:49;10.45;;;1.85;;
66619;SDS011;53484;51.356;6.732;2022-10-01T14:56:16;12.98;;;1.70;;
66619;SDS011;53484;51.356;6.732;2022-10-01T14:58:43;9.02;;;1.58;;
66619;SDS011;53484;51.356;6.732;2022-10-01T15:01:15;8.77;;;1.43;;
66619;SDS011;53484;51.356;6.732;2022-10-01T15:03:42;9.13;;;1.20;;
66619;SDS011;53484;51.356;6.732;2022-10-01T15:06:10;11.23;;;1.60;;
66619;SDS011;53484;51.356;6.732;2022-10-01T15:08:38;10.45;;;1.70;;
66619;SDS011;53484;51.356;6.732;2022-10-01T15:11:05;10.13;;;1.85;;
66619;SDS011;53484;51.356;6.732;2022-10-01T15:13:34;8.10;;;1.30;;
66619;SDS011;53484;51.356;6.732;2022-10-01T15:16:02;9.68;;;1.30;;
66619;SDS011;53484;51.356;6.732;2022-10-01T15:18:30;8.13;;;1.90;;
66619;SDS011;53484;51.356;6.732;2022-10-01T15:20:57;8.35;;;1.25;;
66619;SDS011;53484;51.356;6.732;2022-10-01T15:23:25;7.45;;;1.40;;
66619;SDS011;53484;51.356;6.732;2022-10-01T15:25:53;9.70;;;1.43;;
66619;SDS011;53484;51.356;6.732;2022-10-01T15:28:25;10.45;;;1.02;;
66619;SDS011;53484;51.356;6.732;2022-10-01T15:30:52;13.40;;;2.03;;
66619;SDS011;53484;51.356;6.732;2022-10-01T15:33:22;11.20;;;1.30;;
66619;SDS011;53484;51.356;6.732;2022-10-01T15:35:52;7.65;;;1.35;;
66619;SDS011;53484;51.356;6.732;2022-10-01T15:38:19;11.53;;;1.63;;
66619;SDS011;53484;51.356;6.732;2022-10-01T15:40:45;9.77;;;1.60;;
66619;SDS011;53484;51.356;6.732;2022-10-01T15:43:24;8.57;;;1.80;;
66619;SDS011;53484;51.356;6.732;2022-10-01T15:48:45;7.80;;;1.17;;
66619;SDS011;53484;51.356;6.732;2022-10-01T15:51:15;11.70;;;1.53;;
66619;SDS011;53484;51.356;6.732;2022-10-01T15:53:43;7.32;;;1.55;;
66619;SDS011;53484;51.356;6.732;2022-10-01T15:56:11;6.68;;;1.33;;
66619;SDS011;53484;51.356;6.732;2022-10-01T15:58:41;8.40;;;1.48;;
66619;SDS011;53484;51.356;6.732;2022-10-01T16:01:08;6.13;;;1.30;;
66619;SDS011;53484;51.356;6.732;2022-10-01T16:03:36;7.00;;;1.20;;
66619;SDS011;53484;51.356;6.732;2022-10-01T16:06:04;7.45;;;1.10;;
66619;SDS011;53484;51.356;6.732;2022-10-01T16:08:32;6.85;;;1.00;;
66619;SDS011;53484;51.356;6.732;2022-10-01T16:11:08;7.25;;;1.27;;
66619;SDS011;53484;51.356;6.732;2022-10-01T16:13:41;7.32;;;1.63;;
66619;SDS011;53484;51.356;6.732;2022-10-01T16:16:16;9.37;;;1.73;;
66619;SDS011;53484;51.356;6.732;2022-10-01T16:18:45;10.13;;;2.22;;
66619;SDS011;53484;51.356;6.732;2022-10-01T16:21:16;7.97;;;1.33;;
66619;SDS011;53484;51.356;6.732;2022-10-01T16:23:44;8.60;;;1.45;;
66619;SDS011;53484;51.356;6.732;2022-10-01T16:26:27;8.95;;;3.13;;
66619;SDS011;53484;51.356;6.732;2022-10-01T16:28:53;14.57;;;1.50;;
66619;SDS011;53484;51.356;6.732;2022-10-01T16:31:20;11.32;;;3.40;;
66619;SDS011;53484;51.356;6.732;2022-10-01T16:33:47;11.75;;;1.85;;
66619;SDS011;53484;51.356;6.732;2022-10-01T16:36:13;8.25;;;1.75;;
66619;SDS011;53484;51.356;6.732;2022-10-01T16:38:45;10.70;;;1.42;;
66619;SDS011;53484;51.356;6.732;2022-10-01T16:41:12;8.27;;;1.30;;
66619;SDS011;53484;51.356;6.732;2022-10-01T16:43:39;11.30;;;1.38;;
66619;SDS011;53484;51.356;6.732;2022-10-01T16:46:05;8.60;;;1.52;;
66619;SDS011;53484;51.356;6.732;2022-10-01T16:48:32;5.82;;;1.38;;
66619;SDS011;53484;51.356;6.732;2022-10-01T16:50:58;11.85;;;1.80;;
66619;SDS011;53484;51.356;6.732;2022-10-01T16:53:24;11.23;;;1.70;;
66619;SDS011;53484;51.356;6.732;2022-10-01T16:55:52;10.77;;;1.70;;
66619;SDS011;53484;51.356;6.732;2022-10-01T16:58:20;7.70;;;1.42;;
66619;SDS011;53484;51.356;6.732;2022-10-01T17:00:46;7.65;;;1.30;;
66619;SDS011;53484;51.356;6.732;2022-10-01T17:03:13;7.65;;;1.40;;
66619;SDS011;53484;51.356;6.732;2022-10-01T17:05:41;10.47;;;1.83;;
66619;SDS011;53484;51.356;6.732;2022-10-01T17:08:07;9.88;;;1.98;;
66619;SDS011;53484;51.356;6.732;2022-10-01T17:10:36;12.77;;;3.45;;
66619;SDS011;53484;51.356;6.732;2022-10-01T17:13:05;11.82;;;1.83;;
66619;SDS011;53484;51.356;6.732;2022-10-01T17:15:31;12.82;;;1.80;;
66619;SDS011;53484;51.356;6.732;2022-10-01T17:17:58;7.87;;;2.47;;
66619;SDS011;53484;51.356;6.732;2022-10-01T17:20:25;16.45;;;3.25;;
66619;SDS011;53484;51.356;6.732;2022-10-01T17:22:52;13.35;;;2.50;;
66619;SDS011;53484;51.356;6.732;2022-10-01T17:25:20;12.02;;;1.80;;
66619;SDS011;53484;51.356;6.732;2022-10-01T17:27:47;8.48;;;1.40;;
66619;SDS011;53484;51.356;6.732;2022-10-01T17:30:15;10.23;;;2.63;;
66619;SDS011;53484;51.356;6.732;2022-10-01T17:32:41;11.95;;;1.77;;
66619;SDS011;53484;51.356;6.732;2022-10-01T17:35:09;13.70;;;2.00;;
66619;SDS011;53484;51.356;6.732;2022-10-01T17:37:35;13.88;;;4.00;;
66619;SDS011;53484;51.356;6.732;2022-10-01T17:40:02;13.68;;;4.22;;
66619;SDS011;53484;51.356;6.732;2022-10-01T17:42:28;13.87;;;5.10;;
66619;SDS011;53484;51.356;6.732;2022-10-01T17:44:56;15.07;;;2.80;;
66619;SDS011;53484;51.356;6.732;2022-10-01T17:47:24;10.02;;;3.67;;
66619;SDS011;53484;51.356;6.732;2022-10-01T17:49:50;21.58;;;13.18;;
66619;SDS011;53484;51.356;6.732;2022-10-01T17:52:17;17.40;;;4.70;;
66619;SDS011;53484;51.356;6.732;2022-10-01T17:54:43;18.00;;;4.50;;
66619;SDS011;53484;51.356;6.732;2022-10-01T17:57:10;14.20;;;3.33;;
66619;SDS011;53484;51.356;6.732;2022-10-01T17:59:36;11.98;;;3.35;;
66619;SDS011;53484;51.356;6.732;2022-10-01T18:02:03;16.00;;;3.72;;
66619;SDS011;53484;51.356;6.732;2022-10-01T18:04:30;12.73;;;2.70;;
66619;SDS011;53484;51.356;6.732;2022-10-01T18:06:57;13.53;;;2.30;;
66619;SDS011;53484;51.356;6.732;2022-10-01T18:09:24;13.45;;;2.63;;
66619;SDS011;53484;51.356;6.732;2022-10-01T18:11:51;9.75;;;2.55;;
66619;SDS011;53484;51.356;6.732;2022-10-01T18:14:17;10.30;;;2.55;;
66619;SDS011;53484;51.356;6.732;2022-10-01T18:16:44;12.10;;;2.17;;
66619;SDS011;53484;51.356;6.732;2022-10-01T18:19:10;9.77;;;2.30;;
66619;SDS011;53484;51.356;6.732;2022-10-01T18:21:40;14.18;;;2.38;;
66619;SDS011;53484;51.356;6.732;2022-10-01T18:24:07;13.95;;;5.25;;
66619;SDS011;53484;51.356;6.732;2022-10-01T18:26:33;12.88;;;2.42;;
66619;SDS011;53484;51.356;6.732;2022-10-01T18:29:01;13.18;;;3.38;;
66619;SDS011;53484;51.356;6.732;2022-10-01T18:31:28;11.87;;;2.97;;
66619;SDS011;53484;51.356;6.732;2022-10-01T18:33:58;8.82;;;2.55;;
66619;SDS011;53484;51.356;6.732;2022-10-01T18:36:28;13.45;;;2.58;;
66619;SDS011;53484;51.356;6.732;2022-10-01T18:39:04;12.65;;;2.50;;
66619;SDS011;53484;51.356;6.732;2022-10-01T18:41:34;13.70;;;2.25;;
66619;SDS011;53484;51.356;6.732;2022-10-01T18:44:03;12.73;;;2.40;;
66619;SDS011;53484;51.356;6.732;2022-10-01T18:46:37;16.25;;;2.83;;
66619;SDS011;53484;51.356;6.732;2022-10-01T18:49:09;13.05;;;2.70;;
66619;SDS011;53484;51.356;6.732;2022-10-01T18:51:44;12.65;;;2.80;;
66619;SDS011;53484;51.356;6.732;2022-10-01T18:54:25;13.40;;;3.85;;
66619;SDS011;53484;51.356;6.732;2022-10-01T18:57:01;11.13;;;2.47;;
66619;SDS011;53484;51.356;6.732;2022-10-01T18:59:44;13.77;;;3.85;;
66619;SDS011;53484;51.356;6.732;2022-10-01T19:05:02;12.15;;;3.08;;
66619;SDS011;53484;51.356;6.732;2022-10-01T19:07:32;11.57;;;2.20;;
66619;SDS011;53484;51.356;6.732;2022-10-01T19:10:07;13.97;;;2.60;;
66619;SDS011;53484;51.356;6.732;2022-10-01T19:12:39;13.50;;;2.80;;
66619;SDS011;53484;51.356;6.732;2022-10-01T19:15:12;12.77;;;2.88;;
66619;SDS011;53484;51.356;6.732;2022-10-01T19:17:45;14.60;;;2.80;;
66619;SDS011;53484;51.356;6.732;2022-10-01T19:20:22;15.07;;;2.40;;
66619;SDS011;53484;51.356;6.732;2022-10-01T19:22:56;18.37;;;2.60;;